createdAt,value
2023-01-21T00:01:08.208Z,98685.53
2023-01-21T00:03:34.828Z,98684.00
2023-01-21T00:06:01.981Z,98692.22
2023-01-21T00:08:28.941Z,98687.91
2023-01-21T00:10:55.554Z,98691.44
2023-01-21T00:13:22.199Z,98700.31
2023-01-21T00:15:49.101Z,98705.47
2023-01-21T00:18:15.679Z,98703.00
2023-01-21T00:20:42.314Z,98694.31
2023-01-21T00:23:10.971Z,98692.69
2023-01-21T00:25:37.592Z,98697.16
2023-01-21T00:28:04.237Z,98700.03
2023-01-21T00:30:30.823Z,98704.63
2023-01-21T00:32:57.415Z,98708.44
2023-01-21T00:35:23.963Z,98699.25
2023-01-21T00:37:53.406Z,98705.94
2023-01-21T00:40:20.224Z,98712.84
2023-01-21T00:42:46.780Z,98714.78
2023-01-21T00:45:13.460Z,98716.13
2023-01-21T00:47:40.350Z,98713.88
2023-01-21T00:50:07.639Z,98720.41
2023-01-21T00:52:34.223Z,98717.63
2023-01-21T00:55:00.796Z,98719.09
2023-01-21T00:57:27.365Z,98728.47
2023-01-21T00:59:54.119Z,98718.31
2023-01-21T01:02:20.737Z,98718.31
2023-01-21T01:04:47.392Z,98720.13
2023-01-21T01:07:13.974Z,98722.97
2023-01-21T01:09:40.508Z,98729.03
2023-01-21T01:12:07.328Z,98727.38
2023-01-21T01:14:33.817Z,98731.13
2023-01-21T01:17:00.386Z,98735.72
2023-01-21T01:19:27.009Z,98734.81
2023-01-21T01:21:53.556Z,98734.31
2023-01-21T01:24:20.147Z,98733.53
2023-01-21T01:26:46.753Z,98738.00
2023-01-21T01:29:13.719Z,98734.75
2023-01-21T01:31:40.398Z,98741.53
2023-01-21T01:34:07.067Z,98739.31
2023-01-21T01:36:33.643Z,98745.75
2023-01-21T01:39:00.326Z,98739.38
2023-01-21T01:41:30.128Z,98743.75
2023-01-21T01:44:26.856Z,98747.41
2023-01-21T01:46:56.704Z,98750.50
2023-01-21T01:49:23.536Z,98755.78
2023-01-21T01:52:01.373Z,98746.25
2023-01-21T01:54:32.481Z,98757.28
2023-01-21T01:59:36.933Z,98761.94
2023-01-21T02:02:06.989Z,98765.47
2023-01-21T02:04:40.339Z,98763.56
2023-01-21T02:07:07.631Z,98764.44
2023-01-21T02:09:34.385Z,98761.63
2023-01-21T02:14:42.977Z,98765.44
2023-01-21T02:17:21.406Z,98761.97
2023-01-21T02:19:57.562Z,98775.59
2023-01-21T02:25:54.425Z,98775.00
2023-01-21T02:29:05.693Z,98784.38
2023-01-21T02:31:50.962Z,98780.00
2023-01-21T02:34:38.884Z,98781.28
2023-01-21T02:37:11.907Z,98783.69
2023-01-21T02:39:50.484Z,98781.28
2023-01-21T02:42:55.267Z,98793.34
2023-01-21T02:45:33.586Z,98796.09
2023-01-21T02:48:10.957Z,98796.63
2023-01-21T02:50:52.569Z,98798.47
2023-01-21T02:53:34.859Z,98788.78
2023-01-21T02:56:09.587Z,98796.97
2023-01-21T02:58:40.140Z,98806.50
2023-01-21T03:01:18.554Z,98806.16
2023-01-21T03:04:03.316Z,98805.59
2023-01-21T03:06:39.177Z,98807.25
2023-01-21T03:09:26.216Z,98813.09
2023-01-21T03:12:29.936Z,98804.31
2023-01-21T03:15:22.600Z,98809.19
2023-01-21T03:18:01.197Z,98809.97
2023-01-21T03:20:34.399Z,98813.69
2023-01-21T03:23:12.685Z,98815.03
2023-01-21T03:25:41.073Z,98814.19
2023-01-21T03:28:14.068Z,98818.03
2023-01-21T03:30:42.712Z,98820.16
2023-01-21T03:33:13.016Z,98825.25
2023-01-21T03:35:44.079Z,98815.06
2023-01-21T03:38:18.466Z,98820.22
2023-01-21T03:40:55.527Z,98822.03
2023-01-21T03:43:22.341Z,98819.94
2023-01-21T03:46:15.247Z,98825.53
2023-01-21T03:48:49.463Z,98822.31
2023-01-21T03:51:22.016Z,98825.81
2023-01-21T03:53:59.553Z,98824.47
2023-01-21T03:56:27.212Z,98819.66
2023-01-21T03:58:54.400Z,98825.91
2023-01-21T04:01:21.306Z,98818.09
2023-01-21T04:03:47.907Z,98823.47
2023-01-21T04:06:16.525Z,98823.97
2023-01-21T04:08:43.345Z,98827.19
2023-01-21T04:11:10.150Z,98822.66
2023-01-21T04:13:37.059Z,98826.94
2023-01-21T04:18:41.753Z,98839.63
2023-01-21T04:21:08.395Z,98838.75
2023-01-21T04:23:35.007Z,98833.94
2023-01-21T04:26:01.582Z,98834.50
2023-01-21T04:30:59.739Z,98839.09
2023-01-21T04:33:26.566Z,98843.44
2023-01-21T04:35:57.919Z,98839.13
2023-01-21T04:38:24.518Z,98844.47
2023-01-21T04:40:51.132Z,98850.91
2023-01-21T04:43:17.987Z,98850.38
2023-01-21T04:45:44.561Z,98843.16
2023-01-21T04:48:11.323Z,98849.03
2023-01-21T04:50:37.873Z,98854.16
2023-01-21T04:55:36.845Z,98858.44
2023-01-21T04:58:03.481Z,98850.41
2023-01-21T05:00:29.986Z,98859.78
2023-01-21T05:02:56.785Z,98860.03
2023-01-21T05:05:23.472Z,98854.44
2023-01-21T05:07:53.836Z,98850.94
2023-01-21T05:10:21.179Z,98857.34
2023-01-21T05:12:48.746Z,98861.88
2023-01-21T05:15:15.504Z,98856.28
2023-01-21T05:17:42.657Z,98862.16
2023-01-21T05:20:09.960Z,98863.78
2023-01-21T05:22:36.571Z,98869.41
2023-01-21T05:25:03.612Z,98865.38
2023-01-21T05:27:30.286Z,98861.63
2023-01-21T05:32:36.700Z,98865.38
2023-01-21T05:35:06.403Z,98875.53
2023-01-21T05:37:33.052Z,98879.81
2023-01-21T05:39:59.607Z,98875.25
2023-01-21T05:42:26.264Z,98880.06
2023-01-21T05:44:53.096Z,98883.28
2023-01-21T05:47:19.723Z,98884.31
2023-01-21T05:49:46.269Z,98886.75
2023-01-21T05:52:12.841Z,98890.25
2023-01-21T05:54:49.179Z,98895.34
2023-01-21T05:57:22.825Z,98896.41
2023-01-21T05:59:49.416Z,98902.81
2023-01-21T06:02:15.999Z,98895.31
2023-01-21T06:04:42.611Z,98900.41
2023-01-21T06:07:09.170Z,98904.41
2023-01-21T06:09:35.715Z,98901.47
2023-01-21T06:12:02.280Z,98909.22
2023-01-21T06:14:28.884Z,98908.44
2023-01-21T06:16:55.425Z,98916.19
2023-01-21T06:19:21.984Z,98914.06
2023-01-21T06:21:48.701Z,98918.63
2023-01-21T06:24:15.383Z,98917.25
2023-01-21T06:26:41.891Z,98917.81
2023-01-21T06:29:08.721Z,98924.72
2023-01-21T06:31:35.308Z,98926.09
2023-01-21T06:34:01.920Z,98934.66
2023-01-21T06:36:28.501Z,98938.66
2023-01-21T06:38:55.068Z,98943.72
2023-01-21T06:41:21.627Z,98936.25
2023-01-21T06:43:48.217Z,98942.38
2023-01-21T06:46:14.839Z,98947.09
2023-01-21T06:48:43.363Z,98944.41
2023-01-21T06:51:10.304Z,98958.28
2023-01-21T06:53:36.915Z,98972.44
2023-01-21T06:56:03.622Z,98966.59
2023-01-21T06:58:30.578Z,98972.16
2023-01-21T07:00:57.925Z,98981.00
2023-01-21T07:03:24.473Z,98972.50
2023-01-21T07:05:51.033Z,98979.25
2023-01-21T07:08:17.624Z,98986.06
2023-01-21T07:10:46.228Z,98996.47
2023-01-21T07:13:14.154Z,99004.19
2023-01-21T07:15:40.789Z,99014.34
2023-01-21T07:18:07.388Z,99012.88
2023-01-21T07:20:34.150Z,99005.69
2023-01-21T07:23:00.755Z,99013.47
2023-01-21T07:25:27.392Z,99023.56
2023-01-21T07:27:53.936Z,99014.00
2023-01-21T07:30:21.265Z,99009.50
2023-01-21T07:32:48.426Z,99019.91
2023-01-21T07:35:15.785Z,99018.28
2023-01-21T07:37:42.616Z,99019.06
2023-01-21T07:40:09.742Z,99022.06
2023-01-21T07:42:36.398Z,99028.19
2023-01-21T07:45:04.046Z,99027.47
2023-01-21T07:47:30.712Z,99020.81
2023-01-21T07:49:57.287Z,99027.50
2023-01-21T07:52:23.888Z,99025.63
2023-01-21T07:54:50.469Z,99021.88
2023-01-21T07:57:17.075Z,99022.66
2023-01-21T07:59:43.711Z,99021.34
2023-01-21T08:02:12.178Z,99023.22
2023-01-21T08:04:38.797Z,99031.78
2023-01-21T08:07:12.049Z,99039.81
2023-01-21T08:09:39.844Z,99036.84
2023-01-21T08:12:07.483Z,99036.59
2023-01-21T08:14:34.346Z,99035.53
2023-01-21T08:17:01.741Z,99032.34
2023-01-21T08:19:28.320Z,99039.81
2023-01-21T08:21:54.876Z,99033.09
2023-01-21T08:26:52.697Z,99034.19
2023-01-21T08:29:19.222Z,99033.09
2023-01-21T08:31:45.898Z,99037.66
2023-01-21T08:34:12.435Z,99036.59
2023-01-21T08:36:39.911Z,99039.28
2023-01-21T08:39:06.647Z,99040.34
2023-01-21T08:41:33.898Z,99035.53
2023-01-21T08:44:00.493Z,99028.28
2023-01-21T08:46:27.774Z,99021.06
2023-01-21T08:48:54.390Z,99028.03
2023-01-21T08:51:20.983Z,99026.66
2023-01-21T08:53:49.967Z,99032.81
2023-01-21T08:56:17.247Z,99037.09
2023-01-21T08:58:44.114Z,99036.53
2023-01-21T09:01:13.344Z,99033.31
2023-01-21T09:03:39.959Z,99030.59
2023-01-21T09:06:07.654Z,99038.59
2023-01-21T09:11:09.300Z,99041.00
2023-01-21T09:13:38.574Z,99034.84
2023-01-21T09:16:13.824Z,99037.53
2023-01-21T09:18:40.992Z,99043.44
2023-01-21T09:21:08.480Z,99036.94
2023-01-21T09:23:36.585Z,99041.19
2023-01-21T09:26:14.088Z,99044.97
2023-01-21T09:28:42.486Z,99053.25
2023-01-21T09:31:12.506Z,99060.19
2023-01-21T09:33:42.467Z,99058.13
2023-01-21T09:36:14.325Z,99060.22
2023-01-21T09:38:44.751Z,99051.91
2023-01-21T09:41:30.045Z,99056.13
2023-01-21T09:44:20.617Z,99063.59
2023-01-21T09:46:56.373Z,99060.09
2023-01-21T09:49:30.836Z,99059.78
2023-01-21T09:52:21.158Z,99069.19
2023-01-21T09:54:47.852Z,99063.31
2023-01-21T09:57:36.789Z,99065.16
2023-01-21T10:00:11.882Z,99069.13
2023-01-21T10:02:47.454Z,99066.41
2023-01-21T10:05:38.721Z,99057.75
2023-01-21T10:08:15.770Z,99064.25
2023-01-21T10:10:47.173Z,99054.94
2023-01-21T10:13:31.565Z,99063.97
2023-01-21T10:16:16.014Z,99069.31
2023-01-21T10:18:45.925Z,99066.19
2023-01-21T10:21:46.219Z,99061.38
2023-01-21T10:24:20.881Z,99066.13
2023-01-21T10:26:49.417Z,99068.25
2023-01-21T10:29:18.158Z,99064.94
2023-01-21T10:31:51.367Z,99067.09
2023-01-21T10:34:19.491Z,99067.69
2023-01-21T10:37:19.845Z,99074.03
2023-01-21T10:39:52.163Z,99068.84
2023-01-21T10:42:40.106Z,99067.34
2023-01-21T10:45:43.763Z,99064.59
2023-01-21T10:48:32.422Z,99063.13
2023-01-21T10:51:06.180Z,99049.50
2023-01-21T10:53:45.493Z,99051.25
2023-01-21T10:56:29.171Z,99058.78
2023-01-21T10:59:01.178Z,99051.78
2023-01-21T11:01:32.528Z,99054.59
2023-01-21T11:06:59.685Z,99047.78
2023-01-21T11:09:29.928Z,99048.34
2023-01-21T11:11:56.877Z,99041.03
2023-01-21T11:14:26.502Z,99046.31
2023-01-21T11:16:53.699Z,99045.28
2023-01-21T11:19:26.475Z,99040.47
2023-01-21T11:24:48.806Z,99039.97
2023-01-21T11:27:28.752Z,99033.97
2023-01-21T11:29:55.334Z,99028.81
2023-01-21T11:32:26.081Z,99016.69
2023-01-21T11:35:02.181Z,99015.34
2023-01-21T11:37:30.906Z,99023.13
2023-01-21T11:40:01.848Z,99013.69
2023-01-21T11:42:28.504Z,99012.28
2023-01-21T11:45:24.435Z,99009.97
2023-01-21T11:47:52.559Z,99012.63
2023-01-21T11:50:34.863Z,99013.75
2023-01-21T11:53:07.995Z,99004.13
2023-01-21T11:55:45.615Z,99010.41
2023-01-21T11:58:32.673Z,99002.91
2023-01-21T12:03:56.807Z,99005.00
2023-01-21T12:06:30.705Z,99004.25
2023-01-21T12:09:02.919Z,99001.13
2023-01-21T12:11:31.560Z,99002.31
2023-01-21T12:17:18.234Z,98996.59
2023-01-21T12:20:14.190Z,99001.66
2023-01-21T12:23:01.281Z,98989.53
2023-01-21T12:25:48.380Z,98994.59
2023-01-21T12:28:20.530Z,98986.19
2023-01-21T12:30:59.146Z,98989.31
2023-01-21T12:33:31.846Z,98989.00
2023-01-21T12:36:04.809Z,98988.09
2023-01-21T12:38:41.172Z,98980.91
2023-01-21T12:41:17.172Z,98994.56
2023-01-21T12:43:56.605Z,98984.97
2023-01-21T12:46:36.945Z,98985.09
2023-01-21T12:49:20.287Z,98987.78
2023-01-21T12:51:51.407Z,98990.88
2023-01-21T12:54:23.614Z,98992.09
2023-01-21T12:56:57.319Z,98993.78
2023-01-21T12:59:43.319Z,98993.56
2023-01-21T13:02:34.452Z,98998.88
2023-01-21T13:05:23.501Z,98988.72
2023-01-21T13:07:57.531Z,98994.66
2023-01-21T13:10:38.230Z,98986.13
2023-01-21T13:13:37.748Z,99001.28
2023-01-21T13:16:08.164Z,98991.38
2023-01-21T13:18:37.465Z,98997.09
2023-01-21T13:21:28.174Z,98998.72
2023-01-21T13:24:02.956Z,99000.22
2023-01-21T13:26:57.258Z,99002.44
2023-01-21T13:29:33.069Z,98996.59
2023-01-21T13:32:32.450Z,99000.59
2023-01-21T13:38:26.158Z,99002.31
2023-01-21T13:41:20.594Z,99008.72
2023-01-21T13:44:20.254Z,99008.72
2023-01-21T13:47:26.921Z,99004.50
2023-01-21T13:50:21.132Z,99018.75
2023-01-21T13:53:06.370Z,99019.88
2023-01-21T13:55:59.211Z,99016.38
2023-01-21T13:58:38.959Z,99016.47
2023-01-21T14:01:15.497Z,99020.47
2023-01-21T14:04:04.355Z,99024.25
2023-01-21T14:06:54.697Z,99020.16
2023-01-21T14:09:38.406Z,99016.16
2023-01-21T14:12:13.550Z,99025.25
2023-01-21T14:14:58.242Z,99022.59
2023-01-21T14:17:39.911Z,99027.22
2023-01-21T14:20:30.690Z,99014.47
2023-01-21T14:23:06.152Z,99028.16
2023-01-21T14:26:03.044Z,99023.44
2023-01-21T14:28:48.688Z,99035.13
2023-01-21T14:31:21.512Z,99038.22
2023-01-21T14:34:18.209Z,99047.25
2023-01-21T14:36:54.036Z,99034.13
2023-01-21T14:39:30.365Z,99041.97
2023-01-21T14:42:14.999Z,99040.44
2023-01-21T14:45:02.642Z,99036.34
2023-01-21T14:47:29.127Z,99047.34
2023-01-21T14:49:57.976Z,99051.84
2023-01-21T14:52:33.253Z,99051.41
2023-01-21T14:55:01.100Z,99048.19
2023-01-21T14:57:37.052Z,99054.97
2023-01-21T15:00:14.144Z,99054.38
2023-01-21T15:02:44.707Z,99058.19
2023-01-21T15:05:11.325Z,99062.25
2023-01-21T15:07:41.655Z,99064.19
2023-01-21T15:10:33.853Z,99068.97
2023-01-21T15:13:04.948Z,99065.38
2023-01-21T15:15:39.828Z,99075.59
2023-01-21T15:18:09.185Z,99070.34
2023-01-21T15:20:50.832Z,99069.81
2023-01-21T15:23:21.981Z,99062.09
2023-01-21T15:26:07.309Z,99071.66
2023-01-21T15:28:52.263Z,99079.75
2023-01-21T15:31:18.889Z,99071.63
2023-01-21T15:33:48.434Z,99079.94
2023-01-21T15:36:22.809Z,99080.81
2023-01-21T15:38:50.882Z,99082.66
2023-01-21T15:41:27.117Z,99087.91
2023-01-21T15:44:17.638Z,99088.53
2023-01-21T15:46:51.687Z,99093.41
2023-01-21T15:49:31.238Z,99090.34
2023-01-21T15:52:00.574Z,99084.97
2023-01-21T15:54:51.754Z,99083.34
2023-01-21T15:58:00.745Z,99090.34
2023-01-21T16:00:35.022Z,99085.53
2023-01-21T16:03:23.392Z,99096.91
2023-01-21T16:05:59.665Z,99087.78
2023-01-21T16:08:47.594Z,99092.56
2023-01-21T16:11:14.092Z,99090.19
2023-01-21T16:14:13.694Z,99095.72
2023-01-21T16:17:14.354Z,99097.88
2023-01-21T16:19:45.539Z,99103.31
2023-01-21T16:22:18.870Z,99100.59
2023-01-21T16:24:50.105Z,99103.03
2023-01-21T16:27:31.217Z,99109.19
2023-01-21T16:30:03.771Z,99113.19
2023-01-21T16:32:32.526Z,99115.06
2023-01-21T16:35:00.188Z,99113.97
2023-01-21T16:37:28.870Z,99107.78
2023-01-21T16:40:19.522Z,99110.97
2023-01-21T16:42:46.391Z,99113.97
2023-01-21T16:45:22.276Z,99117.00
2023-01-21T16:47:59.695Z,99113.19
2023-01-21T16:50:28.914Z,99126.41
2023-01-21T16:52:57.540Z,99121.78
2023-01-21T16:55:30.832Z,99122.09
2023-01-21T16:57:59.144Z,99120.84
2023-01-21T17:00:29.869Z,99117.28
2023-01-21T17:03:00.432Z,99116.34
2023-01-21T17:05:31.724Z,99117.59
2023-01-21T17:08:01.810Z,99123.53
2023-01-21T17:10:39.260Z,99129.31
2023-01-21T17:13:13.043Z,99125.06
2023-01-21T17:15:49.618Z,99140.63
2023-01-21T17:18:26.122Z,99134.47
2023-01-21T17:21:04.950Z,99136.28
2023-01-21T17:23:37.371Z,99141.22
2023-01-21T17:26:13.682Z,99141.19
2023-01-21T17:28:46.358Z,99143.97
2023-01-21T17:31:15.850Z,99154.88
2023-01-21T17:33:44.181Z,99149.50
2023-01-21T17:36:16.009Z,99153.53
2023-01-21T17:38:45.329Z,99149.06
2023-01-21T17:41:26.380Z,99141.53
2023-01-21T17:43:58.212Z,99148.50
2023-01-21T17:46:25.370Z,99155.22
2023-01-21T17:51:30.422Z,99152.25
2023-01-21T17:54:00.777Z,99152.22
2023-01-21T17:56:59.795Z,99154.94
2023-01-21T17:59:26.311Z,99152.78
2023-01-21T18:01:55.153Z,99156.81
2023-01-21T18:04:22.718Z,99157.34
2023-01-21T18:06:51.140Z,99161.13
2023-01-21T18:09:20.057Z,99160.84
2023-01-21T18:11:51.820Z,99153.63
2023-01-21T18:14:21.695Z,99162.16
2023-01-21T18:16:48.548Z,99164.69
2023-01-21T18:19:32.223Z,99160.63
2023-01-21T18:22:00.452Z,99163.09
2023-01-21T18:24:27.916Z,99155.94
2023-01-21T18:26:56.577Z,99160.19
2023-01-21T18:29:27.213Z,99160.28
2023-01-21T18:31:53.971Z,99155.97
2023-01-21T18:34:20.578Z,99156.56
2023-01-21T18:36:47.270Z,99153.00
2023-01-21T18:44:23.183Z,99152.00
2023-01-21T18:46:49.814Z,99153.38
2023-01-21T18:49:19.647Z,99151.22
2023-01-21T18:51:46.857Z,99153.63
2023-01-21T18:54:14.550Z,99145.84
2023-01-21T18:56:42.534Z,99144.47
2023-01-21T18:59:17.611Z,99142.06
2023-01-21T19:01:45.041Z,99143.72
2023-01-21T19:04:18.312Z,99139.97
2023-01-21T19:06:50.563Z,99139.41
2023-01-21T19:09:21.055Z,99135.66
2023-01-21T19:11:47.902Z,99139.09
2023-01-21T19:14:14.675Z,99143.88
2023-01-21T19:16:42.929Z,99140.94
2023-01-21T19:19:11.188Z,99136.28
2023-01-21T19:21:38.470Z,99132.88
2023-01-21T19:24:06.594Z,99135.28
2023-01-21T19:26:34.017Z,99134.28
2023-01-21T19:29:02.257Z,99130.56
2023-01-21T19:31:29.026Z,99127.03
2023-01-21T19:33:55.783Z,99128.06
2023-01-21T19:39:01.639Z,99130.75
2023-01-21T19:41:28.271Z,99129.13
2023-01-21T19:43:54.870Z,99137.72
2023-01-21T19:46:23.951Z,99129.94
2023-01-21T19:48:53.764Z,99133.91
2023-01-21T19:51:20.719Z,99131.47
2023-01-21T19:53:47.404Z,99131.81
2023-01-21T19:56:22.933Z,99127.22
2023-01-21T19:58:50.148Z,99133.66
2023-01-21T20:01:16.802Z,99130.91
2023-01-21T20:03:58.497Z,99133.94
2023-01-21T20:06:27.380Z,99135.50
2023-01-21T20:08:54.020Z,99137.47
2023-01-21T20:11:20.923Z,99133.44
2023-01-21T20:13:47.553Z,99139.38
2023-01-21T20:16:21.092Z,99137.97
2023-01-21T20:18:49.443Z,99138.72
2023-01-21T20:21:16.555Z,99139.22
2023-01-21T20:23:43.326Z,99140.13
2023-01-21T20:26:18.232Z,99137.75
2023-01-21T20:28:47.947Z,99136.69
2023-01-21T20:31:14.657Z,99136.88
2023-01-21T20:33:43.715Z,99138.50
2023-01-21T20:36:18.230Z,99140.13
2023-01-21T20:38:45.022Z,99141.19
2023-01-21T20:41:13.435Z,99147.09
2023-01-21T20:43:40.370Z,99144.94
2023-01-21T20:46:21.593Z,99145.84
2023-01-21T20:48:48.839Z,99140.19
2023-01-21T20:51:15.551Z,99134.03
2023-01-21T20:53:42.251Z,99147.19
2023-01-21T20:59:06.245Z,99145.25
2023-01-21T21:04:06.563Z,99144.47
2023-01-21T21:06:33.678Z,99142.63
2023-01-21T21:09:00.282Z,99139.38
2023-01-21T21:11:26.927Z,99140.63
2023-01-21T21:13:53.491Z,99138.44
2023-01-21T21:16:23.299Z,99136.09
2023-01-21T21:18:50.576Z,99139.69
2023-01-21T21:21:18.390Z,99143.50
2023-01-21T21:23:48.258Z,99136.56
2023-01-21T21:26:17.090Z,99131.75
2023-01-21T21:28:44.855Z,99136.63
2023-01-21T21:31:14.215Z,99132.63
2023-01-21T21:33:41.695Z,99135.00
2023-01-21T21:36:20.751Z,99136.59
2023-01-21T21:38:49.048Z,99133.97
2023-01-21T21:41:35.824Z,99129.69
2023-01-21T21:44:04.078Z,99127.63
2023-01-21T21:46:49.211Z,99122.50
2023-01-21T21:49:15.955Z,99118.47
2023-01-21T21:51:44.742Z,99110.09
2023-01-21T21:54:14.245Z,99116.28
2023-01-21T21:56:41.192Z,99121.38
2023-01-21T21:59:08.293Z,99120.63
2023-01-21T22:01:36.190Z,99115.72
2023-01-21T22:04:03.791Z,99112.56
2023-01-21T22:06:31.232Z,99111.94
2023-01-21T22:08:58.952Z,99110.97
2023-01-21T22:11:26.892Z,99103.41
2023-01-21T22:13:54.865Z,99097.03
2023-01-21T22:16:24.229Z,99097.00
2023-01-21T22:18:51.593Z,99096.69
2023-01-21T22:21:24.073Z,99090.78
2023-01-21T22:23:51.146Z,99093.72
2023-01-21T22:26:20.497Z,99091.84
2023-01-21T22:28:47.465Z,99084.09
2023-01-21T22:31:16.530Z,99088.19
2023-01-21T22:33:43.938Z,99088.97
2023-01-21T22:36:14.083Z,99084.06
2023-01-21T22:38:41.096Z,99085.97
2023-01-21T22:41:09.310Z,99081.44
2023-01-21T22:43:38.052Z,99084.84
2023-01-21T22:46:04.986Z,99085.94
2023-01-21T22:48:32.835Z,99085.13
2023-01-21T22:51:01.294Z,99078.19
2023-01-21T22:53:28.336Z,99078.09
2023-01-21T22:56:00.691Z,99073.50
2023-01-21T23:01:01.494Z,99074.69
2023-01-21T23:03:29.269Z,99075.25
2023-01-21T23:06:05.590Z,99072.22
2023-01-21T23:08:32.330Z,99075.09
2023-01-21T23:11:06.861Z,99070.06
2023-01-21T23:13:34.607Z,99067.38
2023-01-21T23:16:01.901Z,99066.91
2023-01-21T23:18:29.247Z,99058.59
2023-01-21T23:20:56.519Z,99058.13
2023-01-21T23:23:23.899Z,99054.00
2023-01-21T23:25:50.684Z,99053.22
2023-01-21T23:28:17.823Z,99051.03
2023-01-21T23:30:44.646Z,99046.44
2023-01-21T23:33:11.949Z,99048.66
2023-01-21T23:35:38.539Z,99044.34
2023-01-21T23:38:05.250Z,99046.75
2023-01-21T23:40:31.808Z,99050.81
2023-01-21T23:42:58.469Z,99040.56
2023-01-21T23:47:56.312Z,99048.78
2023-01-21T23:50:22.856Z,99043.72
2023-01-21T23:52:49.447Z,99043.75
2023-01-21T23:55:16.072Z,99034.88
2023-01-21T23:57:42.607Z,99045.44
